Time;durP1;ratioP1;P1;durP2;ratioP2;P2;SDS_P1;SDS_P2;PMS_P1;PMS_P2;Temp;Humidity;BMP_temperature;BMP_pressure;BME280_temperature;BME280_humidity;BME280_pressure;Samples;Min_cycle;Max_cycle;Signal;HPM_P1;HPM_P2
2022/06/05 00:02:06;;;;;;;1999.90;999.90;;;;;;;;;;4982228;28;20951;-65
2022/06/05 00:04:55;;;;;;;1999.90;999.90;;;;;;;;;;4979574;28;20219;-65
2022/06/05 00:07:44;;;;;;;1999.90;999.90;;;;;;;;;;4980561;28;20712;-66
2022/06/05 00:10:36;;;;;;;1999.90;999.90;;;;;;;;;;4983777;28;20223;-66
2022/06/05 00:13:26;;;;;;;1999.90;999.90;;;;;;;;;;4991954;28;20231;-66
2022/06/05 00:16:12;;;;;;;1999.90;999.90;;;;;;;;;;4987244;28;20224;-66
2022/06/05 00:18:57;;;;;;;1999.90;999.90;;;;;;;;;;4970663;28;20213;-65
2022/06/05 00:21:42;;;;;;;1999.90;999.90;;;;;;;;;;4969068;28;20306;-66
2022/06/05 00:24:27;;;;;;;1999.90;999.90;;;;;;;;;;4982104;28;20222;-66
2022/06/05 00:27:19;;;;;;;1999.90;999.90;;;;;;;;;;4993975;28;20207;-65
2022/06/05 00:30:09;;;;;;;1999.90;999.90;;;;;;;;;;4995235;28;20250;-66
2022/06/05 00:32:57;;;;;;;1999.90;999.90;;;;;;;;;;4993209;28;20300;-65
2022/06/05 00:35:46;;;;;;;1999.90;999.90;;;;;;;;;;4976232;28;20262;-66
2022/06/05 00:38:36;;;;;;;1999.90;999.90;;;;;;;;;;4981309;28;20206;-66
2022/06/05 00:41:34;;;;;;;1999.90;999.90;;;;;;;;;;4995291;28;20302;-66
2022/06/05 00:44:22;;;;;;;1999.90;999.90;;;;;;;;;;4975894;28;20450;-66
2022/06/05 00:47:11;;;;;;;1999.90;999.90;;;;;;;;;;4988891;28;20314;-65
2022/06/05 00:49:58;;;;;;;1999.90;999.90;;;;;;;;;;4979671;28;20291;-66
2022/06/05 00:52:45;;;;;;;1999.90;999.90;;;;;;;;;;4980897;28;20231;-65
2022/06/05 00:55:31;;;;;;;1999.90;999.90;;;;;;;;;;4980689;28;20290;-66
2022/06/05 00:58:17;;;;;;;1999.90;999.90;;;;;;;;;;4980488;28;20442;-66
2022/06/05 01:01:02;;;;;;;1999.90;999.90;;;;;;;;;;4981674;28;20602;-66
2022/06/05 01:03:49;;;;;;;1999.90;999.90;;;;;;;;;;4978067;28;20264;-66
2022/06/05 01:06:34;;;;;;;1999.90;999.90;;;;;;;;;;4955649;29;20204;-65
2022/06/05 01:09:19;;;;;;;1999.90;999.90;;;;;;;;;;4955582;29;20304;-66
2022/06/05 01:12:09;;;;;;;1999.90;999.90;;;;;;;;;;4955801;29;20221;-65
2022/06/05 01:14:59;;;;;;;1999.90;999.90;;;;;;;;;;4967588;28;20600;-66
2022/06/05 01:17:50;;;;;;;1999.90;999.90;;;;;;;;;;4975962;28;20738;-65
2022/06/05 01:20:46;;;;;;;1999.90;999.90;;;;;;;;;;4976227;28;20812;-65
2022/06/05 01:23:40;;;;;;;1999.90;999.90;;;;;;;;;;4981764;28;20299;-66
2022/06/05 01:26:28;;;;;;;1999.90;999.90;;;;;;;;;;4954536;28;20228;-66
2022/06/05 01:29:17;;;;;;;1999.90;999.90;;;;;;;;;;4954114;29;20416;-66
2022/06/05 01:32:04;;;;;;;1999.90;999.90;;;;;;;;;;4955324;29;20238;-65
2022/06/05 01:34:53;;;;;;;1999.90;999.90;;;;;;;;;;4978108;28;20624;-66
2022/06/05 01:37:41;;;;;;;1999.90;999.90;;;;;;;;;;4955143;29;20228;-65
2022/06/05 01:40:28;;;;;;;1999.90;999.90;;;;;;;;;;4967318;28;20316;-66
2022/06/05 01:43:17;;;;;;;1999.90;999.90;;;;;;;;;;4984403;28;20549;-66
2022/06/05 01:46:04;;;;;;;1999.90;999.90;;;;;;;;;;4994073;28;20226;-66
2022/06/05 01:48:52;;;;;;;1999.90;999.90;;;;;;;;;;4968478;28;20268;-65
2022/06/05 01:51:41;;;;;;;1999.90;999.90;;;;;;;;;;4979345;28;20255;-65
2022/06/05 01:54:29;;;;;;;1999.90;999.90;;;;;;;;;;4955113;29;20238;-65
2022/06/05 01:57:17;;;;;;;1999.90;999.90;;;;;;;;;;4954992;29;20220;-66
2022/06/05 02:00:07;;;;;;;1999.90;999.90;;;;;;;;;;4971533;28;20216;-66
2022/06/05 02:02:54;;;;;;;1999.90;999.90;;;;;;;;;;4981964;28;20224;-65
2022/06/05 02:05:43;;;;;;;1999.90;999.90;;;;;;;;;;4976225;28;20663;-66
2022/06/05 02:08:34;;;;;;;1999.90;999.90;;;;;;;;;;4970525;28;20288;-66
2022/06/05 02:11:21;;;;;;;1999.90;999.90;;;;;;;;;;4982724;28;20279;-66
2022/06/05 02:14:08;;;;;;;1999.90;999.90;;;;;;;;;;4980861;28;20215;-65
2022/06/05 02:16:54;;;;;;;1999.90;999.90;;;;;;;;;;4992437;28;20303;-66
2022/06/05 02:19:40;;;;;;;1999.90;999.90;;;;;;;;;;4977668;28;20216;-66
2022/06/05 02:22:28;;;;;;;1999.90;999.90;;;;;;;;;;4961054;28;20255;-66
2022/06/05 02:25:15;;;;;;;1999.90;999.90;;;;;;;;;;4983923;28;20698;-66
2022/06/05 02:28:01;;;;;;;1999.90;999.90;;;;;;;;;;4970066;28;20224;-66
2022/06/05 02:30:49;;;;;;;1999.90;999.90;;;;;;;;;;4981518;28;20589;-66
2022/06/05 02:33:38;;;;;;;1999.90;999.90;;;;;;;;;;4974281;28;20232;-66
2022/06/05 02:36:27;;;;;;;1999.90;999.90;;;;;;;;;;4954392;29;20326;-65
2022/06/05 02:39:17;;;;;;;1999.90;999.90;;;;;;;;;;4953751;28;20733;-65
2022/06/05 02:42:05;;;;;;;1999.90;999.90;;;;;;;;;;4954045;29;20225;-66
2022/06/05 02:44:54;;;;;;;1999.90;999.90;;;;;;;;;;4977772;28;20220;-65
2022/06/05 02:47:43;;;;;;;1999.90;999.90;;;;;;;;;;4972414;28;20259;-66
2022/06/05 02:50:32;;;;;;;1999.90;999.90;;;;;;;;;;4972013;28;20214;-66
2022/06/05 02:53:17;;;;;;;1999.90;999.90;;;;;;;;;;4981007;28;20300;-65
2022/06/05 02:56:06;;;;;;;1999.90;999.90;;;;;;;;;;4989780;28;20419;-68
2022/06/05 02:58:51;;;;;;;1999.90;999.90;;;;;;;;;;4992264;28;20210;-66
2022/06/05 03:04:39;;;;;;;1999.90;999.90;;;;;;;;;;4976888;28;20211;-66
2022/06/05 03:07:26;;;;;;;1999.90;999.90;;;;;;;;;;4953931;29;20220;-66
2022/06/05 03:10:11;;;;;;;1999.90;999.90;;;;;;;;;;4953158;29;20412;-66
2022/06/05 03:12:56;;;;;;;1999.90;999.90;;;;;;;;;;4953919;29;20226;-66
2022/06/05 03:15:42;;;;;;;1999.90;999.90;;;;;;;;;;4964601;28;20219;-66
2022/06/05 03:18:27;;;;;;;1999.90;999.90;;;;;;;;;;4975493;28;20223;-65
2022/06/05 03:21:11;;;;;;;1999.90;999.90;;;;;;;;;;4984394;28;20571;-66
2022/06/05 03:23:58;;;;;;;1999.90;999.90;;;;;;;;;;4982431;28;20219;-66
2022/06/05 03:26:43;;;;;;;1999.90;999.90;;;;;;;;;;4972999;28;20204;-66
2022/06/05 03:29:28;;;;;;;1999.90;999.90;;;;;;;;;;4971115;28;20226;-66
2022/06/05 03:32:13;;;;;;;1999.90;999.90;;;;;;;;;;4980813;28;20303;-66
2022/06/05 03:34:58;;;;;;;1999.90;999.90;;;;;;;;;;4972912;28;20223;-66
2022/06/05 03:37:43;;;;;;;1999.90;999.90;;;;;;;;;;4972848;28;20205;-66
2022/06/05 03:40:29;;;;;;;1999.90;999.90;;;;;;;;;;4974689;28;20447;-66
2022/06/05 03:43:14;;;;;;;1999.90;999.90;;;;;;;;;;4989700;28;20629;-65
2022/06/05 03:46:00;;;;;;;1999.90;999.90;;;;;;;;;;4977666;28;20580;-66
2022/06/05 03:48:45;;;;;;;1999.90;999.90;;;;;;;;;;4990579;28;20336;-66
2022/06/05 03:51:31;;;;;;;1999.90;999.90;;;;;;;;;;4981722;28;20679;-66
2022/06/05 03:54:15;;;;;;;1999.90;999.90;;;;;;;;;;4983694;28;20437;-66
2022/06/05 03:57:02;;;;;;;1999.90;999.90;;;;;;;;;;4976524;28;20252;-66
2022/06/05 03:59:48;;;;;;;1999.90;999.90;;;;;;;;;;4981115;28;20271;-65
2022/06/05 04:02:34;;;;;;;1999.90;999.90;;;;;;;;;;4956721;29;20360;-66
2022/06/05 04:05:20;;;;;;;1999.90;999.90;;;;;;;;;;4972236;28;20231;-65
2022/06/05 04:08:05;;;;;;;1999.90;999.90;;;;;;;;;;4992753;28;20215;-66
2022/06/05 04:10:50;;;;;;;1999.90;999.90;;;;;;;;;;4995634;28;20231;-66
2022/06/05 04:13:36;;;;;;;1999.90;999.90;;;;;;;;;;4977488;28;20715;-66
2022/06/05 04:16:22;;;;;;;1999.90;999.90;;;;;;;;;;4976211;28;20216;-65
2022/06/05 04:19:07;;;;;;;1999.90;999.90;;;;;;;;;;4976198;28;20220;-66
2022/06/05 04:21:52;;;;;;;1999.90;999.90;;;;;;;;;;4986196;28;20234;-66
2022/06/05 04:24:37;;;;;;;1999.90;999.90;;;;;;;;;;4979566;28;20717;-66
2022/06/05 04:27:22;;;;;;;1999.90;999.90;;;;;;;;;;4994505;28;20753;-66
2022/06/05 04:30:09;;;;;;;1999.90;999.90;;;;;;;;;;4994303;28;20211;-65
2022/06/05 04:32:54;;;;;;;1999.90;999.90;;;;;;;;;;4974403;28;20223;-66
2022/06/05 04:35:39;;;;;;;1999.90;999.90;;;;;;;;;;4975934;28;20218;-65
2022/06/05 04:38:24;;;;;;;1999.90;999.90;;;;;;;;;;4974781;28;20407;-66
2022/06/05 04:41:09;;;;;;;1999.90;999.90;;;;;;;;;;4975866;28;20247;-66
2022/06/05 04:43:54;;;;;;;1999.90;999.90;;;;;;;;;;4975397;28;20223;-65
2022/06/05 04:46:41;;;;;;;1999.90;999.90;;;;;;;;;;4975479;28;20298;-67
2022/06/05 04:49:26;;;;;;;1999.90;999.90;;;;;;;;;;4974363;28;20204;-66
2022/06/05 04:52:12;;;;;;;1999.90;999.90;;;;;;;;;;4975976;28;20220;-65
2022/06/05 04:54:56;;;;;;;1999.90;999.90;;;;;;;;;;4976311;28;20199;-65
2022/06/05 04:57:43;;;;;;;1999.90;999.90;;;;;;;;;;4989673;28;20714;-65
2022/06/05 05:00:28;;;;;;;1999.90;999.90;;;;;;;;;;4984029;28;20223;-67
2022/06/05 05:03:14;;;;;;;1999.90;999.90;;;;;;;;;;4981630;28;20322;-66
2022/06/05 05:05:59;;;;;;;1999.90;999.90;;;;;;;;;;4979723;28;20279;-67
2022/06/05 05:08:44;;;;;;;1999.90;999.90;;;;;;;;;;4975685;28;20206;-67
2022/06/05 05:11:29;;;;;;;1999.90;999.90;;;;;;;;;;4975175;28;20482;-68
2022/06/05 05:14:14;;;;;;;1999.90;999.90;;;;;;;;;;4973847;28;20619;-67
2022/06/05 05:16:59;;;;;;;1999.90;999.90;;;;;;;;;;4981784;28;20211;-67
2022/06/05 05:19:46;;;;;;;1999.90;999.90;;;;;;;;;;4980071;28;20216;-67
2022/06/05 05:22:37;;;;;;;1999.90;999.90;;;;;;;;;;4988193;28;20427;-67
2022/06/05 05:25:22;;;;;;;1999.90;999.90;;;;;;;;;;4993083;28;20780;-67
2022/06/05 05:28:08;;;;;;;1999.90;999.90;;;;;;;;;;4992819;28;20215;-67
2022/06/05 05:30:53;;;;;;;1999.90;999.90;;;;;;;;;;4993263;28;20297;-67
2022/06/05 05:33:38;;;;;;;1999.90;999.90;;;;;;;;;;4992889;28;20691;-67
2022/06/05 05:36:25;;;;;;;1999.90;999.90;;;;;;;;;;4992821;28;20343;-67
2022/06/05 05:42:14;;;;;;;1999.90;999.90;;;;;;;;;;4992943;28;20219;-66
2022/06/05 05:44:59;;;;;;;1999.90;999.90;;;;;;;;;;4992752;28;20214;-67
2022/06/05 05:47:44;;;;;;;1999.90;999.90;;;;;;;;;;4992547;28;20215;-67
2022/06/05 05:50:29;;;;;;;1999.90;999.90;;;;;;;;;;4992875;28;20214;-66
2022/06/05 05:53:15;;;;;;;1999.90;999.90;;;;;;;;;;4985411;28;20224;-67
2022/06/05 05:56:05;;;;;;;1999.90;999.90;;;;;;;;;;4974125;28;20219;-67
2022/06/05 05:58:50;;;;;;;1999.90;999.90;;;;;;;;;;4976507;28;20290;-66
2022/06/05 06:01:35;;;;;;;1999.90;999.90;;;;;;;;;;4972647;28;20223;-66
2022/06/05 06:04:21;;;;;;;1999.90;999.90;;;;;;;;;;4973805;28;20549;-67
2022/06/05 06:07:06;;;;;;;1999.90;999.90;;;;;;;;;;4974148;28;20212;-66
2022/06/05 06:09:53;;;;;;;1999.90;999.90;;;;;;;;;;4973979;28;20571;-66
2022/06/05 06:12:38;;;;;;;1999.90;999.90;;;;;;;;;;4991923;28;20302;-66
2022/06/05 06:15:23;;;;;;;1999.90;999.90;;;;;;;;;;4992163;28;20226;-66
2022/06/05 06:18:08;;;;;;;1999.90;999.90;;;;;;;;;;4972347;28;20211;-65
2022/06/05 06:20:53;;;;;;;1999.90;999.90;;;;;;;;;;4968269;28;20220;-67
2022/06/05 06:23:37;;;;;;;1999.90;999.90;;;;;;;;;;4972558;28;20232;-67
2022/06/05 06:26:24;;;;;;;1999.90;999.90;;;;;;;;;;4973766;28;20569;-67
2022/06/05 06:29:09;;;;;;;1999.90;999.90;;;;;;;;;;4988690;28;20211;-66
2022/06/05 06:31:53;;;;;;;1999.90;999.90;;;;;;;;;;4973582;28;20222;-67
2022/06/05 06:34:39;;;;;;;1999.90;999.90;;;;;;;;;;4973351;28;20316;-67
2022/06/05 06:37:24;;;;;;;1999.90;999.90;;;;;;;;;;4976245;28;20203;-67
2022/06/05 06:40:09;;;;;;;1999.90;999.90;;;;;;;;;;4962921;28;20203;-67
2022/06/05 06:42:56;;;;;;;1999.90;999.90;;;;;;;;;;4972717;28;20234;-67
2022/06/05 06:45:41;;;;;;;1999.90;999.90;;;;;;;;;;4984923;28;20336;-67
2022/06/05 06:48:26;;;;;;;1999.90;999.90;;;;;;;;;;4985076;28;20419;-67
2022/06/05 06:51:12;;;;;;;1999.90;999.90;;;;;;;;;;4983150;28;20339;-67
2022/06/05 06:53:57;;;;;;;1999.90;999.90;;;;;;;;;;4990449;28;20239;-67
2022/06/05 06:56:42;;;;;;;1999.90;999.90;;;;;;;;;;4991632;28;20571;-67
2022/06/05 06:59:29;;;;;;;1999.90;999.90;;;;;;;;;;4990936;28;20297;-67
2022/06/05 07:02:14;;;;;;;1999.90;999.90;;;;;;;;;;4990394;28;20315;-67
2022/06/05 07:04:59;;;;;;;1999.90;999.90;;;;;;;;;;4969766;28;20199;-67
2022/06/05 07:07:44;;;;;;;1999.90;999.90;;;;;;;;;;4990860;28;20294;-67
2022/06/05 07:10:29;;;;;;;1999.90;999.90;;;;;;;;;;4989801;28;20242;-67
2022/06/05 07:13:14;;;;;;;1999.90;999.90;;;;;;;;;;4991392;28;20227;-67
2022/06/05 07:16:00;;;;;;;1999.90;999.90;;;;;;;;;;4983310;28;20212;-67
2022/06/05 07:18:45;;;;;;;1999.90;999.90;;;;;;;;;;4971414;28;20410;-67
2022/06/05 07:21:30;;;;;;;1999.90;999.90;;;;;;;;;;4985752;28;20220;-67
2022/06/05 07:24:16;;;;;;;1999.90;999.90;;;;;;;;;;4983798;28;20218;-67
2022/06/05 07:27:01;;;;;;;1999.90;999.90;;;;;;;;;;4987120;28;20232;-66
2022/06/05 07:29:46;;;;;;;1999.90;999.90;;;;;;;;;;4984481;28;20209;-66
2022/06/05 07:32:32;;;;;;;1999.90;999.90;;;;;;;;;;4983731;28;20413;-67
2022/06/05 07:35:18;;;;;;;1999.90;999.90;;;;;;;;;;4995419;28;20278;-66
2022/06/05 07:38:03;;;;;;;1999.90;999.90;;;;;;;;;;4995240;28;20208;-67
2022/06/05 07:40:47;;;;;;;1999.90;999.90;;;;;;;;;;4987270;28;20214;-68
2022/06/05 07:43:33;;;;;;;1999.90;999.90;;;;;;;;;;4970073;28;20240;-67
2022/06/05 07:46:18;;;;;;;1999.90;999.90;;;;;;;;;;4977995;28;20221;-68
2022/06/05 07:49:05;;;;;;;1999.90;999.90;;;;;;;;;;4978457;28;20701;-67
2022/06/05 07:54:53;;;;;;;1999.90;999.90;;;;;;;;;;4969872;28;20203;-66
2022/06/05 07:57:38;;;;;;;1999.90;999.90;;;;;;;;;;4973608;28;20739;-67
2022/06/05 08:00:24;;;;;;;1999.90;999.90;;;;;;;;;;4977887;28;20222;-67
2022/06/05 08:03:09;;;;;;;1999.90;999.90;;;;;;;;;;4975016;28;20435;-67
2022/06/05 08:05:55;;;;;;;1999.90;999.90;;;;;;;;;;4973064;28;20347;-67
2022/06/05 08:08:40;;;;;;;1999.90;999.90;;;;;;;;;;4972779;28;20701;-67
2022/06/05 08:11:25;;;;;;;1999.90;999.90;;;;;;;;;;4974754;28;20303;-67
2022/06/05 08:14:10;;;;;;;1999.90;999.90;;;;;;;;;;4974414;28;20208;-67
2022/06/05 08:16:56;;;;;;;1999.90;999.90;;;;;;;;;;4971497;28;20342;-67
2022/06/05 08:19:42;;;;;;;1999.90;999.90;;;;;;;;;;4970927;28;20271;-68
2022/06/05 08:22:29;;;;;;;1999.90;999.90;;;;;;;;;;4969498;28;20377;-67
2022/06/05 08:25:14;;;;;;;1999.90;999.90;;;;;;;;;;4966699;28;20202;-67
2022/06/05 08:27:59;;;;;;;1999.90;999.90;;;;;;;;;;4972030;28;20268;-66
2022/06/05 08:30:44;;;;;;;1999.90;999.90;;;;;;;;;;4971519;28;20705;-66
2022/06/05 08:33:29;;;;;;;1999.90;999.90;;;;;;;;;;4972495;28;20585;-67
2022/06/05 08:36:14;;;;;;;1999.90;999.90;;;;;;;;;;4969711;28;20207;-68
2022/06/05 08:42:07;;;;;;;1999.90;999.90;;;;;;;;;;4966941;28;20295;-68
2022/06/05 08:44:57;;;;;;;1999.90;999.90;;;;;;;;;;4970931;28;20660;-67
2022/06/05 08:47:45;;;;;;;1999.90;999.90;;;;;;;;;;4970083;28;20272;-67
2022/06/05 08:50:34;;;;;;;1999.90;999.90;;;;;;;;;;4966302;28;20220;-68
2022/06/05 08:53:21;;;;;;;1999.90;999.90;;;;;;;;;;4967859;28;20254;-68
2022/06/05 08:56:08;;;;;;;1999.90;999.90;;;;;;;;;;4968595;28;20332;-67
2022/06/05 08:58:55;;;;;;;1999.90;999.90;;;;;;;;;;4969938;28;20899;-67
2022/06/05 09:01:42;;;;;;;1999.90;999.90;;;;;;;;;;4970305;28;20310;-67
2022/06/05 09:04:39;;;;;;;1999.90;999.90;;;;;;;;;;4967199;28;20260;-68
2022/06/05 09:07:27;;;;;;;1999.90;999.90;;;;;;;;;;4972361;28;20207;-67
2022/06/05 09:10:15;;;;;;;1999.90;999.90;;;;;;;;;;4969117;28;20336;-67
2022/06/05 09:13:05;;;;;;;1999.90;999.90;;;;;;;;;;4968182;28;20320;-67
2022/06/05 09:15:57;;;;;;;1999.90;999.90;;;;;;;;;;4974964;28;20208;-67
2022/06/05 09:18:46;;;;;;;1999.90;999.90;;;;;;;;;;4972104;28;20206;-67
2022/06/05 09:21:32;;;;;;;1999.90;999.90;;;;;;;;;;4972632;28;20706;-65
2022/06/05 09:24:20;;;;;;;1999.90;999.90;;;;;;;;;;4970319;28;20303;-67
2022/06/05 09:27:11;;;;;;;1999.90;999.90;;;;;;;;;;4969326;28;20225;-67
2022/06/05 09:30:01;;;;;;;1999.90;999.90;;;;;;;;;;4968398;28;20522;-66
2022/06/05 09:32:57;;;;;;;1999.90;999.90;;;;;;;;;;4971716;28;20237;-67
2022/06/05 09:35:45;;;;;;;1999.90;999.90;;;;;;;;;;4970785;28;20747;-66
2022/06/05 09:38:32;;;;;;;1999.90;999.90;;;;;;;;;;4972084;28;20214;-66
2022/06/05 09:41:23;;;;;;;1999.90;999.90;;;;;;;;;;4972320;28;20348;-67
2022/06/05 09:44:18;;;;;;;1999.90;999.90;;;;;;;;;;4972109;28;20423;-67
2022/06/05 09:47:06;;;;;;;1999.90;999.90;;;;;;;;;;4969459;28;20217;-67
2022/06/05 09:49:54;;;;;;;1999.90;999.90;;;;;;;;;;4971959;28;20290;-66
2022/06/05 09:52:40;;;;;;;1999.90;999.90;;;;;;;;;;4972024;28;20737;-66
2022/06/05 09:55:35;;;;;;;1999.90;999.90;;;;;;;;;;4972292;28;20199;-67
2022/06/05 09:58:31;;;;;;;1999.90;999.90;;;;;;;;;;4971710;28;20222;-67
2022/06/05 10:01:21;;;;;;;1999.90;999.90;;;;;;;;;;4970250;28;20208;-67
2022/06/05 10:04:07;;;;;;;1999.90;999.90;;;;;;;;;;4970028;28;20256;-67
2022/06/05 10:06:54;;;;;;;1999.90;999.90;;;;;;;;;;4971851;28;20204;-67
2022/06/05 10:09:44;;;;;;;1999.90;999.90;;;;;;;;;;4969686;28;20318;-67
2022/06/05 10:12:33;;;;;;;1999.90;999.90;;;;;;;;;;4976311;28;20298;-67
2022/06/05 10:15:21;;;;;;;1999.90;999.90;;;;;;;;;;4970429;28;20764;-66
2022/06/05 10:18:11;;;;;;;1999.90;999.90;;;;;;;;;;4965545;28;20294;-67
2022/06/05 10:21:02;;;;;;;1999.90;999.90;;;;;;;;;;4968399;28;20221;-67
2022/06/05 10:23:52;;;;;;;1999.90;999.90;;;;;;;;;;4967900;28;20243;-66
2022/06/05 10:26:38;;;;;;;1999.90;999.90;;;;;;;;;;4969311;28;20225;-66
2022/06/05 10:29:24;;;;;;;1999.90;999.90;;;;;;;;;;4971453;28;20461;-66
2022/06/05 10:32:13;;;;;;;1999.90;999.90;;;;;;;;;;4971853;28;20241;-68
2022/06/05 10:35:01;;;;;;;1999.90;999.90;;;;;;;;;;4967216;28;20300;-66
2022/06/05 10:37:51;;;;;;;1999.90;999.90;;;;;;;;;;4971346;28;20217;-67
2022/06/05 10:40:41;;;;;;;1999.90;999.90;;;;;;;;;;4969895;28;20289;-67
2022/06/05 10:43:27;;;;;;;1999.90;999.90;;;;;;;;;;4969674;28;20254;-67
2022/06/05 10:46:20;;;;;;;1999.90;999.90;;;;;;;;;;4969294;28;20593;-66
2022/06/05 10:49:10;;;;;;;1999.90;999.90;;;;;;;;;;4968187;28;20308;-67
2022/06/05 10:51:59;;;;;;;1999.90;999.90;;;;;;;;;;4966953;28;20802;-66
2022/06/05 10:54:50;;;;;;;1999.90;999.90;;;;;;;;;;4969232;28;20218;-67
2022/06/05 10:57:37;;;;;;;1999.90;999.90;;;;;;;;;;4969822;28;21744;-66
2022/06/05 11:00:26;;;;;;;1999.90;999.90;;;;;;;;;;4967699;28;20240;-67
2022/06/05 11:03:14;;;;;;;1999.90;999.90;;;;;;;;;;4971242;28;20364;-66
2022/06/05 11:06:08;;;;;;;1999.90;999.90;;;;;;;;;;4970996;28;20280;-66
2022/06/05 11:08:58;;;;;;;1999.90;999.90;;;;;;;;;;4970724;28;20561;-66
2022/06/05 11:14:55;;;;;;;1999.90;999.90;;;;;;;;;;4967519;28;20285;-67
2022/06/05 11:17:47;;;;;;;1999.90;999.90;;;;;;;;;;4971963;28;20200;-66
2022/06/05 11:20:33;;;;;;;1999.90;999.90;;;;;;;;;;4970548;28;20573;-66
2022/06/05 11:23:18;;;;;;;1999.90;999.90;;;;;;;;;;4970754;28;20233;-66
2022/06/05 11:26:06;;;;;;;1999.90;999.90;;;;;;;;;;4967564;28;20279;-66
2022/06/05 11:29:01;;;;;;;1999.90;999.90;;;;;;;;;;4965294;28;20221;-66
2022/06/05 11:31:51;;;;;;;1999.90;999.90;;;;;;;;;;4968134;28;20279;-66
2022/06/05 11:34:42;;;;;;;1999.90;999.90;;;;;;;;;;4967700;28;20208;-66
2022/06/05 11:37:36;;;;;;;1999.90;999.90;;;;;;;;;;4973557;28;20212;-65
2022/06/05 11:40:27;;;;;;;1999.90;999.90;;;;;;;;;;4966533;28;20628;-66
2022/06/05 11:43:23;;;;;;;1999.90;999.90;;;;;;;;;;4969805;28;20477;-66
2022/06/05 11:46:17;;;;;;;1999.90;999.90;;;;;;;;;;4968132;28;20207;-66
2022/06/05 11:49:06;;;;;;;1999.90;999.90;;;;;;;;;;4967761;28;20213;-66
2022/06/05 11:51:58;;;;;;;1999.90;999.90;;;;;;;;;;4966496;28;20403;-66
2022/06/05 11:54:46;;;;;;;1999.90;999.90;;;;;;;;;;4971203;28;20296;-65
2022/06/05 11:57:36;;;;;;;1999.90;999.90;;;;;;;;;;4964777;28;21005;-65
2022/06/05 12:00:26;;;;;;;1999.90;999.90;;;;;;;;;;4968662;28;20443;-65
2022/06/05 12:03:15;;;;;;;1999.90;999.90;;;;;;;;;;4973377;28;20233;-65
2022/06/05 12:06:02;;;;;;;1999.90;999.90;;;;;;;;;;4967305;28;20230;-66
2022/06/05 12:08:50;;;;;;;1999.90;999.90;;;;;;;;;;4964186;28;20568;-66
2022/06/05 12:11:37;;;;;;;1999.90;999.90;;;;;;;;;;4967917;28;20224;-65
2022/06/05 12:14:24;;;;;;;1999.90;999.90;;;;;;;;;;4975199;28;20220;-65
2022/06/05 12:17:14;;;;;;;1999.90;999.90;;;;;;;;;;4977401;28;20677;-65
2022/06/05 12:20:03;;;;;;;1999.90;999.90;;;;;;;;;;4975728;28;20212;-65
2022/06/05 12:22:51;;;;;;;1999.90;999.90;;;;;;;;;;4975179;28;20224;-65
2022/06/05 12:25:40;;;;;;;1999.90;999.90;;;;;;;;;;4976822;28;20490;-65
2022/06/05 12:28:29;;;;;;;1999.90;999.90;;;;;;;;;;4973470;28;20219;-65
2022/06/05 12:31:16;;;;;;;1999.90;999.90;;;;;;;;;;4973996;28;20200;-65
2022/06/05 12:34:02;;;;;;;1999.90;999.90;;;;;;;;;;4976783;28;20211;-66
2022/06/05 12:36:57;;;;;;;1999.90;999.90;;;;;;;;;;4976259;28;20215;-67
2022/06/05 12:39:45;;;;;;;1999.90;999.90;;;;;;;;;;4971921;28;20790;-65
2022/06/05 12:42:34;;;;;;;1999.90;999.90;;;;;;;;;;4981070;28;20287;-65
2022/06/05 12:45:22;;;;;;;1999.90;999.90;;;;;;;;;;4979340;28;20223;-64
2022/06/05 12:48:11;;;;;;;1999.90;999.90;;;;;;;;;;4978618;28;20572;-65
2022/06/05 12:50:58;;;;;;;1999.90;999.90;;;;;;;;;;4978073;28;20215;-64
2022/06/05 12:53:46;;;;;;;1999.90;999.90;;;;;;;;;;4970116;28;20244;-65
2022/06/05 12:56:38;;;;;;;1999.90;999.90;;;;;;;;;;4971667;28;20214;-65
2022/06/05 12:59:25;;;;;;;1999.90;999.90;;;;;;;;;;4971393;28;20215;-64
2022/06/05 13:02:15;;;;;;;1999.90;999.90;;;;;;;;;;4971321;28;20236;-64
2022/06/05 13:05:04;;;;;;;1999.90;999.90;;;;;;;;;;4974102;28;20246;-65
2022/06/05 13:07:52;;;;;;;1999.90;999.90;;;;;;;;;;4969519;28;20706;-65
2022/06/05 13:10:40;;;;;;;1999.90;999.90;;;;;;;;;;4974952;28;20439;-64
2022/06/05 13:13:32;;;;;;;1999.90;999.90;;;;;;;;;;4969010;28;20232;-65
2022/06/05 13:16:23;;;;;;;1999.90;999.90;;;;;;;;;;4973127;28;20255;-64
2022/06/05 13:19:30;;;;;;;1999.90;999.90;;;;;;;;;;4976575;28;20207;-65
2022/06/05 13:22:18;;;;;;;1999.90;999.90;;;;;;;;;;4973929;28;20226;-64
2022/06/05 13:25:07;;;;;;;1999.90;999.90;;;;;;;;;;4970733;28;20803;-65
2022/06/05 13:28:02;;;;;;;1999.90;999.90;;;;;;;;;;4971047;28;20976;-66
2022/06/05 13:30:52;;;;;;;1999.90;999.90;;;;;;;;;;4968839;28;20203;-66
2022/06/05 13:33:38;;;;;;;1999.90;999.90;;;;;;;;;;4966180;28;20239;-66
2022/06/05 13:36:29;;;;;;;1999.90;999.90;;;;;;;;;;4972509;28;20210;-66
2022/06/05 13:39:22;;;;;;;1999.90;999.90;;;;;;;;;;4972982;28;20216;-64
2022/06/05 13:42:11;;;;;;;1999.90;999.90;;;;;;;;;;4975807;28;20434;-65
2022/06/05 13:44:58;;;;;;;1999.90;999.90;;;;;;;;;;4979114;28;20216;-64
2022/06/05 13:47:46;;;;;;;1999.90;999.90;;;;;;;;;;4975662;28;20247;-65
2022/06/05 13:50:37;;;;;;;1999.90;999.90;;;;;;;;;;4972230;28;20220;-65
2022/06/05 13:53:25;;;;;;;1999.90;999.90;;;;;;;;;;4968938;28;20445;-65
2022/06/05 13:56:16;;;;;;;1999.90;999.90;;;;;;;;;;4970198;28;20208;-65
2022/06/05 13:59:05;;;;;;;1999.90;999.90;;;;;;;;;;4969925;28;20221;-65
2022/06/05 14:02:04;;;;;;;1999.90;999.90;;;;;;;;;;4969556;28;20300;-64
2022/06/05 14:04:57;;;;;;;1999.90;999.90;;;;;;;;;;4968737;28;20223;-65
2022/06/05 14:07:46;;;;;;;1999.90;999.90;;;;;;;;;;4967299;28;20455;-65
2022/06/05 14:10:33;;;;;;;1999.90;999.90;;;;;;;;;;4967967;28;20220;-65
2022/06/05 14:13:18;;;;;;;1999.90;999.90;;;;;;;;;;4970575;28;20231;-65
2022/06/05 14:16:03;;;;;;;1999.90;999.90;;;;;;;;;;4972590;28;20327;-65
2022/06/05 14:18:56;;;;;;;1999.90;999.90;;;;;;;;;;4969203;28;20219;-66
2022/06/05 14:21:42;;;;;;;1999.90;999.90;;;;;;;;;;4968489;28;20230;-64
2022/06/05 14:24:28;;;;;;;1999.90;999.90;;;;;;;;;;4967935;28;20214;-65
2022/06/05 14:27:15;;;;;;;1999.90;999.90;;;;;;;;;;4965145;28;20215;-64
2022/06/05 14:30:01;;;;;;;1999.90;999.90;;;;;;;;;;4968697;28;20294;-65
2022/06/05 14:32:48;;;;;;;1999.90;999.90;;;;;;;;;;4968734;28;20305;-65
2022/06/05 14:35:35;;;;;;;1999.90;999.90;;;;;;;;;;4966893;28;20583;-65
2022/06/05 14:38:22;;;;;;;1999.90;999.90;;;;;;;;;;4967261;28;20220;-65
2022/06/05 14:41:13;;;;;;;1999.90;999.90;;;;;;;;;;4972728;28;20223;-65
2022/06/05 14:44:00;;;;;;;1999.90;999.90;;;;;;;;;;4967876;28;20291;-65
2022/06/05 14:46:48;;;;;;;1999.90;999.90;;;;;;;;;;4969752;28;21290;-66
2022/06/05 14:49:35;;;;;;;1999.90;999.90;;;;;;;;;;4966676;28;20463;-65
2022/06/05 14:52:32;;;;;;;1999.90;999.90;;;;;;;;;;4965508;28;20317;-65
2022/06/05 14:58:26;;;;;;;1999.90;999.90;;;;;;;;;;4977016;28;20566;-65
2022/06/05 15:01:13;;;;;;;1999.90;999.90;;;;;;;;;;4977138;28;20403;-65
2022/06/05 15:04:05;;;;;;;1999.90;999.90;;;;;;;;;;4976731;28;20226;-65
2022/06/05 15:06:52;;;;;;;1999.90;999.90;;;;;;;;;;4974457;28;20224;-65
2022/06/05 15:09:40;;;;;;;1999.90;999.90;;;;;;;;;;4980559;28;20590;-65
2022/06/05 15:12:29;;;;;;;1999.90;999.90;;;;;;;;;;4973206;28;20236;-65
2022/06/05 15:15:16;;;;;;;1999.90;999.90;;;;;;;;;;4971499;28;20283;-65
2022/06/05 15:18:01;;;;;;;1999.90;999.90;;;;;;;;;;4970627;28;20698;-65
2022/06/05 15:20:54;;;;;;;1999.90;999.90;;;;;;;;;;4979306;28;20498;-65
2022/06/05 15:23:41;;;;;;;1999.90;999.90;;;;;;;;;;4987963;28;20235;-65
2022/06/05 15:26:34;;;;;;;1999.90;999.90;;;;;;;;;;4971683;28;20247;-66
2022/06/05 15:29:22;;;;;;;1999.90;999.90;;;;;;;;;;4972089;28;20236;-65
2022/06/05 15:32:11;;;;;;;1999.90;999.90;;;;;;;;;;4972787;28;20228;-65
2022/06/05 15:35:01;;;;;;;1999.90;999.90;;;;;;;;;;4971376;28;20471;-66
2022/06/05 15:37:51;;;;;;;1999.90;999.90;;;;;;;;;;4978994;28;20203;-66
2022/06/05 15:40:42;;;;;;;1999.90;999.90;;;;;;;;;;4990578;28;20208;-66
2022/06/05 15:43:42;;;;;;;1999.90;999.90;;;;;;;;;;4989954;28;20231;-66
2022/06/05 15:46:34;;;;;;;1999.90;999.90;;;;;;;;;;4992187;28;20284;-66
2022/06/05 15:49:30;;;;;;;1999.90;999.90;;;;;;;;;;4976970;28;20295;-66
2022/06/05 15:52:27;;;;;;;1999.90;999.90;;;;;;;;;;4975322;28;20434;-64
2022/06/05 15:55:20;;;;;;;1999.90;999.90;;;;;;;;;;4961746;28;21164;-64